sensor_id;sensor_type;location;lat;lon;timestamp;pressure;altitude;pressure_sealevel;temperature;humidity
48872;BME280;36154;51.674;7.824;2023-03-23T00:01:11;99663.13;;;20.11;55.20
48872;BME280;36154;51.674;7.824;2023-03-23T00:03:38;99662.28;;;20.11;55.29
48872;BME280;36154;51.674;7.824;2023-03-23T00:06:03;99662.28;;;20.11;55.68
48872;BME280;36154;51.674;7.824;2023-03-23T00:08:35;99663.13;;;20.11;55.24
48872;BME280;36154;51.674;7.824;2023-03-23T00:11:09;99658.81;;;20.12;55.48
48872;BME280;36154;51.674;7.824;2023-03-23T00:13:35;99651.94;;;20.11;55.08
48872;BME280;36154;51.674;7.824;2023-03-23T00:16:01;99647.59;;;20.11;54.94
48872;BME280;36154;51.674;7.824;2023-03-23T00:18:27;99646.78;;;20.11;55.20
48872;BME280;36154;51.674;7.824;2023-03-23T00:20:54;99647.59;;;20.11;55.12
48872;BME280;36154;51.674;7.824;2023-03-23T00:23:23;99638.13;;;20.12;55.17
48872;BME280;36154;51.674;7.824;2023-03-23T00:25:54;99641.59;;;20.11;55.08
48872;BME280;36154;51.674;7.824;2023-03-23T00:28:24;99623.50;;;20.11;55.22
48872;BME280;36154;51.674;7.824;2023-03-23T00:30:56;99626.09;;;20.11;55.27
48872;BME280;36154;51.674;7.824;2023-03-23T00:33:24;99637.25;;;20.11;55.20
48872;BME280;36154;51.674;7.824;2023-03-23T00:35:50;99626.09;;;20.11;55.08
48872;BME280;36154;51.674;7.824;2023-03-23T00:38:23;99619.25;;;20.10;55.16
48872;BME280;36154;51.674;7.824;2023-03-23T00:40:50;99623.63;;;20.08;55.09
48872;BME280;36154;51.674;7.824;2023-03-23T00:43:17;99620.91;;;20.11;55.00
48872;BME280;36154;51.674;7.824;2023-03-23T00:45:43;99620.91;;;20.11;55.13
48872;BME280;36154;51.674;7.824;2023-03-23T00:48:19;99615.75;;;20.11;54.98
48872;BME280;36154;51.674;7.824;2023-03-23T00:50:44;99617.44;;;20.12;55.01
48872;BME280;36154;51.674;7.824;2023-03-23T00:53:10;99610.56;;;20.11;55.20
48872;BME280;36154;51.674;7.824;2023-03-23T00:55:35;99616.56;;;20.11;55.16
48872;BME280;36154;51.674;7.824;2023-03-23T00:58:00;99609.75;;;20.10;55.02
48872;BME280;36154;51.674;7.824;2023-03-23T01:00:26;99603.75;;;20.10;55.23
48872;BME280;36154;51.674;7.824;2023-03-23T01:02:53;99592.47;;;20.11;55.02
48872;BME280;36154;51.674;7.824;2023-03-23T01:05:19;99594.22;;;20.10;55.21
48872;BME280;36154;51.674;7.824;2023-03-23T01:07:45;99593.41;;;20.10;55.08
48872;BME280;36154;51.674;7.824;2023-03-23T01:10:12;99610.56;;;20.11;55.01
48872;BME280;36154;51.674;7.824;2023-03-23T01:12:42;99617.50;;;20.10;55.06
48872;BME280;36154;51.674;7.824;2023-03-23T01:15:09;99603.75;;;20.10;54.96
48872;BME280;36154;51.674;7.824;2023-03-23T01:17:37;99608.91;;;20.10;54.88
48872;BME280;36154;51.674;7.824;2023-03-23T01:20:03;99594.22;;;20.10;54.92
48872;BME280;36154;51.674;7.824;2023-03-23T01:22:32;99600.22;;;20.11;54.92
48872;BME280;36154;51.674;7.824;2023-03-23T01:24:57;99596.00;;;20.10;55.47
48872;BME280;36154;51.674;7.824;2023-03-23T01:27:22;99593.41;;;20.10;54.91
48872;BME280;36154;51.674;7.824;2023-03-23T01:29:48;99592.47;;;20.11;54.49
48872;BME280;36154;51.674;7.824;2023-03-23T01:32:13;99593.41;;;20.10;54.95
48872;BME280;36154;51.674;7.824;2023-03-23T01:34:38;99586.53;;;20.09;54.85
48872;BME280;36154;51.674;7.824;2023-03-23T01:37:03;99583.06;;;20.10;54.92
48872;BME280;36154;51.674;7.824;2023-03-23T01:39:29;99593.41;;;20.10;55.10
48872;BME280;36154;51.674;7.824;2023-03-23T01:41:54;99588.22;;;20.10;54.94
48872;BME280;36154;51.674;7.824;2023-03-23T01:46:45;99590.81;;;20.10;55.01
48872;BME280;36154;51.674;7.824;2023-03-23T01:49:13;99594.22;;;20.10;54.99
48872;BME280;36154;51.674;7.824;2023-03-23T01:51:44;99583.06;;;20.10;54.86
48872;BME280;36154;51.674;7.824;2023-03-23T01:54:13;99577.88;;;20.10;55.00
48872;BME280;36154;51.674;7.824;2023-03-23T01:56:49;99572.72;;;20.10;55.02
48872;BME280;36154;51.674;7.824;2023-03-23T01:59:15;99567.53;;;20.10;54.92
48872;BME280;36154;51.674;7.824;2023-03-23T02:01:41;99577.88;;;20.10;55.02
48872;BME280;36154;51.674;7.824;2023-03-23T02:04:12;99566.69;;;20.09;55.00
48872;BME280;36154;51.674;7.824;2023-03-23T02:06:39;99572.72;;;20.10;54.87
48872;BME280;36154;51.674;7.824;2023-03-23T02:09:04;99583.88;;;20.10;54.83
48872;BME280;36154;51.674;7.824;2023-03-23T02:11:31;99584.72;;;20.11;54.70
48872;BME280;36154;51.674;7.824;2023-03-23T02:13:56;99589.88;;;20.11;54.91
48872;BME280;36154;51.674;7.824;2023-03-23T02:30:33;99529.72;;;20.07;54.89
48872;BME280;36154;51.674;7.824;2023-03-23T02:33:25;99538.31;;;20.08;54.74
48872;BME280;36154;51.674;7.824;2023-03-23T02:36:01;99524.56;;;20.07;54.66
48872;BME280;36154;51.674;7.824;2023-03-23T02:39:03;99523.72;;;20.07;54.89
48872;BME280;36154;51.674;7.824;2023-03-23T02:41:36;99522.84;;;20.06;54.81
48872;BME280;36154;51.674;7.824;2023-03-23T02:44:03;99517.78;;;20.05;54.90
48872;BME280;36154;51.674;7.824;2023-03-23T02:46:31;99517.78;;;20.05;54.84
48872;BME280;36154;51.674;7.824;2023-03-23T02:48:58;99533.13;;;20.08;54.83
48872;BME280;36154;51.674;7.824;2023-03-23T02:51:25;99533.13;;;20.08;54.52
48872;BME280;36154;51.674;7.824;2023-03-23T02:53:53;99522.78;;;20.08;54.85
48872;BME280;36154;51.674;7.824;2023-03-23T02:56:22;99540.00;;;20.09;54.89
48872;BME280;36154;51.674;7.824;2023-03-23T02:58:48;99553.81;;;20.08;54.87
48872;BME280;36154;51.674;7.824;2023-03-23T03:03:54;99538.31;;;20.08;54.47
48872;BME280;36154;51.674;7.824;2023-03-23T03:06:45;99523.66;;;20.08;54.78
48872;BME280;36154;51.674;7.824;2023-03-23T03:09:23;99511.63;;;20.07;54.65
48872;BME280;36154;51.674;7.824;2023-03-23T03:11:59;99510.72;;;20.08;54.65
48872;BME280;36154;51.674;7.824;2023-03-23T03:14:31;99491.75;;;20.08;54.74
48872;BME280;36154;51.674;7.824;2023-03-23T03:17:05;99484.00;;;20.08;54.60
48872;BME280;36154;51.674;7.824;2023-03-23T03:19:36;99478.84;;;20.08;54.81
48872;BME280;36154;51.674;7.824;2023-03-23T03:22:03;99474.59;;;20.07;54.57
48872;BME280;36154;51.674;7.824;2023-03-23T03:24:31;99472.78;;;20.09;54.76
48872;BME280;36154;51.674;7.824;2023-03-23T03:26:58;99460.75;;;20.08;54.58
48872;BME280;36154;51.674;7.824;2023-03-23T03:29:28;99467.59;;;20.09;54.64
48872;BME280;36154;51.674;7.824;2023-03-23T03:31:56;99472.84;;;20.07;54.70
48872;BME280;36154;51.674;7.824;2023-03-23T03:34:23;99476.25;;;20.08;54.60
48872;BME280;36154;51.674;7.824;2023-03-23T03:36:51;99486.53;;;20.09;54.55
48872;BME280;36154;51.674;7.824;2023-03-23T03:39:18;99485.69;;;20.09;54.53
48872;BME280;36154;51.674;7.824;2023-03-23T03:41:45;99480.53;;;20.09;54.62
48872;BME280;36154;51.674;7.824;2023-03-23T03:44:11;99486.53;;;20.09;54.62
48872;BME280;36154;51.674;7.824;2023-03-23T03:46:37;99487.47;;;20.08;54.67
48872;BME280;36154;51.674;7.824;2023-03-23T03:49:05;99493.47;;;20.09;54.62
48872;BME280;36154;51.674;7.824;2023-03-23T03:51:32;99488.28;;;20.09;54.49
48872;BME280;36154;51.674;7.824;2023-03-23T03:53:58;99486.53;;;20.09;54.68
48872;BME280;36154;51.674;7.824;2023-03-23T03:56:24;99483.94;;;20.09;54.50
48872;BME280;36154;51.674;7.824;2023-03-23T03:58:51;99485.69;;;20.09;54.06
48872;BME280;36154;51.674;7.824;2023-03-23T04:01:19;99483.13;;;20.09;54.46
48872;BME280;36154;51.674;7.824;2023-03-23T04:03:46;99489.13;;;20.09;54.61
48872;BME280;36154;51.674;7.824;2023-03-23T04:06:11;99483.94;;;20.09;54.93
48872;BME280;36154;51.674;7.824;2023-03-23T04:08:40;99483.94;;;20.09;54.43
48872;BME280;36154;51.674;7.824;2023-03-23T04:11:08;99486.53;;;20.09;54.53
48872;BME280;36154;51.674;7.824;2023-03-23T04:13:34;99482.22;;;20.10;54.53
48872;BME280;36154;51.674;7.824;2023-03-23T04:15:59;99477.03;;;20.10;54.50
48872;BME280;36154;51.674;7.824;2023-03-23T04:18:25;99477.94;;;20.09;54.58
48872;BME280;36154;51.674;7.824;2023-03-23T04:20:51;99479.63;;;20.10;54.35
48872;BME280;36154;51.674;7.824;2023-03-23T04:23:18;99474.47;;;20.10;54.41
48872;BME280;36154;51.674;7.824;2023-03-23T04:25:49;99477.94;;;20.09;54.57
48872;BME280;36154;51.674;7.824;2023-03-23T04:28:15;99472.78;;;20.09;54.63
48872;BME280;36154;51.674;7.824;2023-03-23T04:30:45;99478.78;;;20.09;54.49
48872;BME280;36154;51.674;7.824;2023-03-23T04:33:13;99483.13;;;20.09;54.40
48872;BME280;36154;51.674;7.824;2023-03-23T04:35:40;99479.69;;;20.08;54.44
48872;BME280;36154;51.674;7.824;2023-03-23T04:38:06;99481.44;;;20.08;54.63
48872;BME280;36154;51.674;7.824;2023-03-23T04:40:35;99475.34;;;20.09;54.28
48872;BME280;36154;51.674;7.824;2023-03-23T04:43:01;99492.63;;;20.08;54.44
48872;BME280;36154;51.674;7.824;2023-03-23T04:45:30;99493.47;;;20.09;54.54
48872;BME280;36154;51.674;7.824;2023-03-23T04:47:58;99495.16;;;20.10;54.50
48872;BME280;36154;51.674;7.824;2023-03-23T04:50:28;99484.00;;;20.08;54.27
48872;BME280;36154;51.674;7.824;2023-03-23T04:52:55;99491.75;;;20.08;54.13
48872;BME280;36154;51.674;7.824;2023-03-23T04:55:23;99477.94;;;20.09;54.41
48872;BME280;36154;51.674;7.824;2023-03-23T04:57:48;99476.25;;;20.08;54.50
48872;BME280;36154;51.674;7.824;2023-03-23T05:00:14;99478.78;;;20.09;54.12
48872;BME280;36154;51.674;7.824;2023-03-23T05:02:42;99489.13;;;20.09;54.29
48872;BME280;36154;51.674;7.824;2023-03-23T05:05:10;99486.47;;;20.11;54.30
48872;BME280;36154;51.674;7.824;2023-03-23T05:07:37;99494.16;;;20.12;54.09
48872;BME280;36154;51.674;7.824;2023-03-23T05:10:03;99496.66;;;20.14;54.31
48872;BME280;36154;51.674;7.824;2023-03-23T05:12:28;99485.44;;;20.15;54.15
48872;BME280;36154;51.674;7.824;2023-03-23T05:14:54;99507.78;;;20.16;54.24
48872;BME280;36154;51.674;7.824;2023-03-23T05:17:20;99488.03;;;20.15;54.18
48872;BME280;36154;51.674;7.824;2023-03-23T05:19:45;99491.31;;;20.19;54.16
48872;BME280;36154;51.674;7.824;2023-03-23T05:22:15;99489.53;;;20.19;54.27
48872;BME280;36154;51.674;7.824;2023-03-23T05:24:41;99493.81;;;20.20;54.03
48872;BME280;36154;51.674;7.824;2023-03-23T05:27:09;99486.94;;;20.19;54.12
48872;BME280;36154;51.674;7.824;2023-03-23T05:29:34;99498.06;;;20.21;54.18
48872;BME280;36154;51.674;7.824;2023-03-23T05:32:04;99503.22;;;20.21;54.24
48872;BME280;36154;51.674;7.824;2023-03-23T05:34:30;99500.66;;;20.21;54.24
48872;BME280;36154;51.674;7.824;2023-03-23T05:36:58;99497.16;;;20.22;54.19
48872;BME280;36154;51.674;7.824;2023-03-23T05:39:24;99506.63;;;20.23;54.15
48872;BME280;36154;51.674;7.824;2023-03-23T05:41:51;99502.28;;;20.24;54.23
48872;BME280;36154;51.674;7.824;2023-03-23T05:44:17;99497.09;;;20.24;54.00
48872;BME280;36154;51.674;7.824;2023-03-23T05:46:43;99508.28;;;20.24;53.99
48872;BME280;36154;51.674;7.824;2023-03-23T05:49:08;99503.22;;;20.21;53.99
48872;BME280;36154;51.674;7.824;2023-03-23T05:51:34;99507.44;;;20.24;54.04
48872;BME280;36154;51.674;7.824;2023-03-23T05:54:00;99511.78;;;20.23;54.01
48872;BME280;36154;51.674;7.824;2023-03-23T05:56:25;99510.09;;;20.22;53.91
48872;BME280;36154;51.674;7.824;2023-03-23T05:58:50;99522.97;;;20.24;53.74
48872;BME280;36154;51.674;7.824;2023-03-23T06:01:16;99528.97;;;20.24;53.91
48872;BME280;36154;51.674;7.824;2023-03-23T06:03:41;99528.97;;;20.24;53.81
48872;BME280;36154;51.674;7.824;2023-03-23T06:06:10;99520.38;;;20.24;53.91
48872;BME280;36154;51.674;7.824;2023-03-23T06:08:36;99528.13;;;20.24;53.79
48872;BME280;36154;51.674;7.824;2023-03-23T06:11:02;99528.13;;;20.24;53.66
48872;BME280;36154;51.674;7.824;2023-03-23T06:13:28;99528.97;;;20.24;53.82
48872;BME280;36154;51.674;7.824;2023-03-23T06:15:56;99531.53;;;20.24;53.76
48872;BME280;36154;51.674;7.824;2023-03-23T06:18:23;99545.31;;;20.25;53.71
48872;BME280;36154;51.674;7.824;2023-03-23T06:20:48;99536.72;;;20.24;53.68
48872;BME280;36154;51.674;7.824;2023-03-23T06:23:14;99539.31;;;20.24;53.85
48872;BME280;36154;51.674;7.824;2023-03-23T06:25:39;99537.66;;;20.23;53.33
48872;BME280;36154;51.674;7.824;2023-03-23T06:28:05;99547.06;;;20.24;53.72
48872;BME280;36154;51.674;7.824;2023-03-23T06:30:31;99544.47;;;20.24;53.77
48872;BME280;36154;51.674;7.824;2023-03-23T06:32:56;99536.72;;;20.24;53.66
48872;BME280;36154;51.674;7.824;2023-03-23T06:35:22;99549.66;;;20.24;53.70
48872;BME280;36154;51.674;7.824;2023-03-23T06:37:47;99554.81;;;20.24;53.66
48872;BME280;36154;51.674;7.824;2023-03-23T06:40:12;99549.66;;;20.24;53.59
48872;BME280;36154;51.674;7.824;2023-03-23T06:42:38;99553.16;;;20.23;53.71
48872;BME280;36154;51.674;7.824;2023-03-23T06:45:04;99554.00;;;20.24;53.60
48872;BME280;36154;51.674;7.824;2023-03-23T06:47:29;99563.50;;;20.23;53.88
48872;BME280;36154;51.674;7.824;2023-03-23T06:49:58;99562.59;;;20.24;53.53
48872;BME280;36154;51.674;7.824;2023-03-23T06:52:24;99570.34;;;20.24;53.52
48872;BME280;36154;51.674;7.824;2023-03-23T06:54:51;99559.22;;;20.22;53.40
48872;BME280;36154;51.674;7.824;2023-03-23T06:57:16;99558.25;;;20.25;53.65
48872;BME280;36154;51.674;7.824;2023-03-23T06:59:43;99560.00;;;20.24;53.42
48872;BME280;36154;51.674;7.824;2023-03-23T07:02:12;99554.81;;;20.24;53.35
48872;BME280;36154;51.674;7.824;2023-03-23T07:04:39;99557.41;;;20.24;53.49
48872;BME280;36154;51.674;7.824;2023-03-23T07:07:07;99560.00;;;20.24;53.47
48872;BME280;36154;51.674;7.824;2023-03-23T07:09:32;99570.34;;;20.24;53.49
48872;BME280;36154;51.674;7.824;2023-03-23T07:11:58;99559.09;;;20.25;53.39
48872;BME280;36154;51.674;7.824;2023-03-23T07:14:23;99558.34;;;20.23;53.32
48872;BME280;36154;51.674;7.824;2023-03-23T07:16:48;99564.28;;;20.25;53.33
48872;BME280;36154;51.674;7.824;2023-03-23T07:19:14;99569.44;;;20.25;53.23
48872;BME280;36154;51.674;7.824;2023-03-23T07:21:40;99563.41;;;20.25;53.28
48872;BME280;36154;51.674;7.824;2023-03-23T07:24:06;99564.28;;;20.25;53.42
48872;BME280;36154;51.674;7.824;2023-03-23T07:26:31;99569.44;;;20.25;53.36
48872;BME280;36154;51.674;7.824;2023-03-23T07:28:56;99566.88;;;20.25;53.42
48872;BME280;36154;51.674;7.824;2023-03-23T07:31:22;99566.88;;;20.25;53.59
48872;BME280;36154;51.674;7.824;2023-03-23T07:33:47;99570.28;;;20.26;53.53
48872;BME280;36154;51.674;7.824;2023-03-23T07:36:13;99575.38;;;20.27;53.80
48872;BME280;36154;51.674;7.824;2023-03-23T07:38:38;99580.56;;;20.27;53.88
48872;BME280;36154;51.674;7.824;2023-03-23T07:41:04;99583.13;;;20.27;53.87
48872;BME280;36154;51.674;7.824;2023-03-23T07:43:30;99587.41;;;20.28;53.80
48872;BME280;36154;51.674;7.824;2023-03-23T07:45:55;99583.91;;;20.29;53.80
48872;BME280;36154;51.674;7.824;2023-03-23T07:48:21;99582.19;;;20.30;54.30
48872;BME280;36154;51.674;7.824;2023-03-23T07:50:46;99580.41;;;20.30;54.43
48872;BME280;36154;51.674;7.824;2023-03-23T07:53:12;99582.94;;;20.32;54.62
48872;BME280;36154;51.674;7.824;2023-03-23T07:55:37;99586.28;;;20.34;54.78
48872;BME280;36154;51.674;7.824;2023-03-23T07:58:03;99581.19;;;20.33;54.87
48872;BME280;36154;51.674;7.824;2023-03-23T08:00:28;99578.47;;;20.36;54.93
48872;BME280;36154;51.674;7.824;2023-03-23T08:02:56;99574.97;;;20.37;55.26
48872;BME280;36154;51.674;7.824;2023-03-23T08:05:23;99582.75;;;20.37;55.26
48872;BME280;36154;51.674;7.824;2023-03-23T08:07:51;99580.16;;;20.37;55.34
48872;BME280;36154;51.674;7.824;2023-03-23T08:10:17;99587.00;;;20.38;55.48
48872;BME280;36154;51.674;7.824;2023-03-23T08:12:44;99586.94;;;20.39;55.10
48872;BME280;36154;51.674;7.824;2023-03-23T08:15:11;99581.81;;;20.38;55.21
48872;BME280;36154;51.674;7.824;2023-03-23T08:17:38;99591.19;;;20.40;55.06
48872;BME280;36154;51.674;7.824;2023-03-23T08:20:04;99591.19;;;20.40;54.99
48872;BME280;36154;51.674;7.824;2023-03-23T08:22:36;99589.44;;;20.41;54.97
48872;BME280;36154;51.674;7.824;2023-03-23T08:25:04;99598.91;;;20.42;54.91
48872;BME280;36154;51.674;7.824;2023-03-23T08:27:31;99598.03;;;20.41;54.71
48872;BME280;36154;51.674;7.824;2023-03-23T08:29:56;99604.06;;;20.42;54.81
48872;BME280;36154;51.674;7.824;2023-03-23T08:32:22;99599.72;;;20.42;54.89
48872;BME280;36154;51.674;7.824;2023-03-23T08:34:48;99583.56;;;20.37;55.07
48872;BME280;36154;51.674;7.824;2023-03-23T08:37:14;99592.03;;;20.41;55.24
48872;BME280;36154;51.674;7.824;2023-03-23T08:39:39;99597.34;;;20.38;55.29
48872;BME280;36154;51.674;7.824;2023-03-23T08:42:05;99599.16;;;20.36;55.50
48872;BME280;36154;51.674;7.824;2023-03-23T08:44:30;99602.66;;;20.35;55.43
48872;BME280;36154;51.674;7.824;2023-03-23T08:46:55;99602.72;;;20.33;55.48
48872;BME280;36154;51.674;7.824;2023-03-23T08:49:23;99602.66;;;20.35;55.38
48872;BME280;36154;51.674;7.824;2023-03-23T08:51:48;99604.34;;;20.36;55.21
48872;BME280;36154;51.674;7.824;2023-03-23T08:54:13;99602.50;;;20.38;55.21
48872;BME280;36154;51.674;7.824;2023-03-23T08:56:39;99605.94;;;20.38;55.21
48872;BME280;36154;51.674;7.824;2023-03-23T08:59:04;99598.16;;;20.38;55.18
48872;BME280;36154;51.674;7.824;2023-03-23T09:01:29;99616.22;;;20.40;55.20
48872;BME280;36154;51.674;7.824;2023-03-23T09:03:55;99601.56;;;20.40;54.93
48872;BME280;36154;51.674;7.824;2023-03-23T09:06:20;99619.59;;;20.42;55.00
48872;BME280;36154;51.674;7.824;2023-03-23T09:08:46;99616.16;;;20.41;54.92
48872;BME280;36154;51.674;7.824;2023-03-23T09:11:11;99620.50;;;20.41;54.98
48872;BME280;36154;51.674;7.824;2023-03-23T09:13:38;99631.59;;;20.43;55.14
48872;BME280;36154;51.674;7.824;2023-03-23T09:16:05;99617.91;;;20.41;54.93
48872;BME280;36154;51.674;7.824;2023-03-23T09:18:32;99612.59;;;20.44;54.64
48872;BME280;36154;51.674;7.824;2023-03-23T09:20:59;99623.78;;;20.44;54.86
48872;BME280;36154;51.674;7.824;2023-03-23T09:23:25;99623.78;;;20.44;54.81
48872;BME280;36154;51.674;7.824;2023-03-23T09:25:50;99624.59;;;20.45;55.00
48872;BME280;36154;51.674;7.824;2023-03-23T09:28:17;99622.03;;;20.45;54.46
48872;BME280;36154;51.674;7.824;2023-03-23T09:30:43;99627.19;;;20.45;54.99
48872;BME280;36154;51.674;7.824;2023-03-23T09:33:09;99632.38;;;20.45;54.77
48872;BME280;36154;51.674;7.824;2023-03-23T09:35:36;99633.22;;;20.45;54.81
48872;BME280;36154;51.674;7.824;2023-03-23T09:38:04;99628.88;;;20.46;54.74
48872;BME280;36154;51.674;7.824;2023-03-23T09:50:42;99656.50;;;20.45;54.70
48872;BME280;36154;51.674;7.824;2023-03-23T09:53:22;99641.81;;;20.46;54.69
48872;BME280;36154;51.674;7.824;2023-03-23T09:55:49;99634.06;;;20.46;54.70
48872;BME280;36154;51.674;7.824;2023-03-23T09:58:20;99635.81;;;20.45;54.49
48872;BME280;36154;51.674;7.824;2023-03-23T10:03:26;99657.34;;;20.46;54.62
48872;BME280;36154;51.674;7.824;2023-03-23T10:05:53;99666.88;;;20.45;54.58
48872;BME280;36154;51.674;7.824;2023-03-23T10:08:22;99653.91;;;20.47;54.46
48872;BME280;36154;51.674;7.824;2023-03-23T10:11:03;99653.91;;;20.47;54.39
48872;BME280;36154;51.674;7.824;2023-03-23T10:16:27;99649.59;;;20.46;54.51
48872;BME280;36154;51.674;7.824;2023-03-23T10:19:01;99646.13;;;20.47;54.22
48872;BME280;36154;51.674;7.824;2023-03-23T10:21:29;99657.31;;;20.47;54.41
48872;BME280;36154;51.674;7.824;2023-03-23T10:24:04;99646.91;;;20.49;54.38
48872;BME280;36154;51.674;7.824;2023-03-23T10:26:41;99648.72;;;20.47;54.15
48872;BME280;36154;51.674;7.824;2023-03-23T10:29:20;99658.19;;;20.46;54.17
48872;BME280;36154;51.674;7.824;2023-03-23T10:31:53;99658.13;;;20.48;54.22
48872;BME280;36154;51.674;7.824;2023-03-23T10:34:24;99655.56;;;20.48;54.15
48872;BME280;36154;51.674;7.824;2023-03-23T10:37:00;99672.88;;;20.46;54.21
48872;BME280;36154;51.674;7.824;2023-03-23T10:39:37;99683.34;;;20.43;54.41
48872;BME280;36154;51.674;7.824;2023-03-23T10:42:04;99697.09;;;20.43;54.30
48872;BME280;36154;51.674;7.824;2023-03-23T10:44:32;99714.38;;;20.43;54.18
48872;BME280;36154;51.674;7.824;2023-03-23T10:47:04;99716.09;;;20.44;54.18
48872;BME280;36154;51.674;7.824;2023-03-23T10:49:34;99716.09;;;20.44;53.97
48872;BME280;36154;51.674;7.824;2023-03-23T10:54:39;99723.84;;;20.44;53.97
48872;BME280;36154;51.674;7.824;2023-03-23T10:57:28;99747.13;;;20.44;54.23
48872;BME280;36154;51.674;7.824;2023-03-23T11:00:01;99746.28;;;20.43;53.85
48872;BME280;36154;51.674;7.824;2023-03-23T11:02:31;99749.72;;;20.44;53.77
48872;BME280;36154;51.674;7.824;2023-03-23T11:05:03;99744.53;;;20.44;53.75
48872;BME280;36154;51.674;7.824;2023-03-23T11:07:33;99745.44;;;20.43;53.50
48872;BME280;36154;51.674;7.824;2023-03-23T11:10:07;99751.44;;;20.43;53.43
48872;BME280;36154;51.674;7.824;2023-03-23T11:12:34;99741.97;;;20.44;53.46
48872;BME280;36154;51.674;7.824;2023-03-23T11:15:22;99754.91;;;20.44;55.06
48872;BME280;36154;51.674;7.824;2023-03-23T11:17:59;99753.97;;;20.45;56.55
48872;BME280;36154;51.674;7.824;2023-03-23T11:20:26;99757.47;;;20.44;56.45
48872;BME280;36154;51.674;7.824;2023-03-23T11:22:53;99757.47;;;20.44;56.42
48872;BME280;36154;51.674;7.824;2023-03-23T11:25:19;99762.66;;;20.44;56.41
48872;BME280;36154;51.674;7.824;2023-03-23T11:27:45;99760.97;;;20.43;56.69
48872;BME280;36154;51.674;7.824;2023-03-23T11:30:20;99759.31;;;20.42;57.43
48872;BME280;36154;51.674;7.824;2023-03-23T11:32:49;99767.13;;;20.40;57.46
48872;BME280;36154;51.674;7.824;2023-03-23T11:35:23;99762.78;;;20.41;57.57
48872;BME280;36154;51.674;7.824;2023-03-23T11:37:56;99761.09;;;20.40;57.82
48872;BME280;36154;51.674;7.824;2023-03-23T11:40:30;99758.50;;;20.40;58.02
48872;BME280;36154;51.674;7.824;2023-03-23T11:43:06;99757.66;;;20.39;58.03
48872;BME280;36154;51.674;7.824;2023-03-23T11:45:38;99770.59;;;20.39;58.28
48872;BME280;36154;51.674;7.824;2023-03-23T11:48:28;99762.84;;;20.39;58.73
48872;BME280;36154;51.674;7.824;2023-03-23T11:51:15;99760.25;;;20.39;59.62
48872;BME280;36154;51.674;7.824;2023-03-23T11:54:04;99762.06;;;20.37;58.90
48872;BME280;36154;51.674;7.824;2023-03-23T11:56:35;99752.56;;;20.38;58.64
48872;BME280;36154;51.674;7.824;2023-03-23T11:59:02;99757.72;;;20.38;58.40
48872;BME280;36154;51.674;7.824;2023-03-23T12:04:40;99755.16;;;20.38;58.75
48872;BME280;36154;51.674;7.824;2023-03-23T12:12:56;99757.78;;;20.36;58.87
48872;BME280;36154;51.674;7.824;2023-03-23T12:15:54;99755.19;;;20.36;59.09
48872;BME280;36154;51.674;7.824;2023-03-23T12:18:47;99759.53;;;20.36;59.14
48872;BME280;36154;51.674;7.824;2023-03-23T12:21:36;99767.38;;;20.34;59.19
48872;BME280;36154;51.674;7.824;2023-03-23T12:24:33;99762.19;;;20.34;59.30
48872;BME280;36154;51.674;7.824;2023-03-23T12:35:43;99766.13;;;20.02;52.02
48872;BME280;36154;51.674;7.824;2023-03-23T12:38:30;99758.19;;;19.84;52.18
48872;BME280;36154;51.674;7.824;2023-03-23T12:41:17;99761.81;;;19.80;52.88
48872;BME280;36154;51.674;7.824;2023-03-23T12:44:01;99768.63;;;19.81;54.01
48872;BME280;36154;51.674;7.824;2023-03-23T12:46:32;99773.75;;;19.83;54.30
48872;BME280;36154;51.674;7.824;2023-03-23T12:49:10;99763.34;;;19.84;55.39
48872;BME280;36154;51.674;7.824;2023-03-23T12:52:01;99771.88;;;19.86;56.89
48872;BME280;36154;51.674;7.824;2023-03-23T12:57:07;99761.41;;;19.89;57.79
48872;BME280;36154;51.674;7.824;2023-03-23T12:59:44;99760.47;;;19.92;58.97
48872;BME280;36154;51.674;7.824;2023-03-23T13:02:21;99769.97;;;19.91;59.11
48872;BME280;36154;51.674;7.824;2023-03-23T13:05:03;99767.31;;;19.93;59.27
48872;BME280;36154;51.674;7.824;2023-03-23T13:07:35;99769.00;;;19.94;59.48
48872;BME280;36154;51.674;7.824;2023-03-23T13:10:23;99767.25;;;19.94;59.97
48872;BME280;36154;51.674;7.824;2023-03-23T13:12:51;99775.00;;;19.94;59.02
48872;BME280;36154;51.674;7.824;2023-03-23T13:15:40;99769.81;;;19.94;58.44
48872;BME280;36154;51.674;7.824;2023-03-23T13:18:16;99777.53;;;19.96;58.89
48872;BME280;36154;51.674;7.824;2023-03-23T13:20:59;99776.69;;;19.96;58.45
48872;BME280;36154;51.674;7.824;2023-03-23T13:23:45;99780.97;;;19.97;59.06
48872;BME280;36154;51.674;7.824;2023-03-23T13:26:14;99769.72;;;19.98;58.50
48872;BME280;36154;51.674;7.824;2023-03-23T13:31:32;99752.38;;;20.00;59.53
48872;BME280;36154;51.674;7.824;2023-03-23T13:34:04;99758.41;;;20.00;60.10
48872;BME280;36154;51.674;7.824;2023-03-23T13:36:35;99752.28;;;20.03;60.56
48872;BME280;36154;51.674;7.824;2023-03-23T13:39:06;99748.66;;;20.07;60.54
48872;BME280;36154;51.674;7.824;2023-03-23T13:41:58;99730.44;;;20.10;60.47
48872;BME280;36154;51.674;7.824;2023-03-23T13:44:27;99728.56;;;20.13;60.19
48872;BME280;36154;51.674;7.824;2023-03-23T13:46:55;99721.59;;;20.16;60.26
48872;BME280;36154;51.674;7.824;2023-03-23T13:49:22;99718.00;;;20.18;59.89
48872;BME280;36154;51.674;7.824;2023-03-23T13:52:14;99716.28;;;20.19;59.93
48872;BME280;36154;51.674;7.824;2023-03-23T13:54:43;99713.88;;;20.14;59.93
48872;BME280;36154;51.674;7.824;2023-03-23T13:58:09;99734.31;;;20.20;59.99
48872;BME280;36154;51.674;7.824;2023-03-23T14:01:18;99732.63;;;20.19;59.41
48872;BME280;36154;51.674;7.824;2023-03-23T14:03:34;99728.44;;;20.17;60.15
48872;BME280;36154;51.674;7.824;2023-03-23T14:06:04;99726.69;;;20.17;60.18
48872;BME280;36154;51.674;7.824;2023-03-23T14:11:01;99724.75;;;20.22;60.28
48872;BME280;36154;51.674;7.824;2023-03-23T14:16:14;99737.50;;;20.27;59.73
48872;BME280;36154;51.674;7.824;2023-03-23T14:18:42;99737.44;;;20.28;59.67